Terminal Aerodrome Forecast
Issued by NWS

Home | Current Version | Previous Version | Text Only | Print | Product List | Glossary On
Versions: 1 2 3 4 5 6 7 8 9 10 11 12 13
000
FTUS45 KPSR 221700
TAFBLH
TAF
KBLH 221721Z 2218/2318 17005KT P6SM SKC
     FM230100 21006KT P6SM SKC
     FM231000 VRB04KT P6SM SKC=

USA.gov is the U.S. government's official web portal to all federal, state and local government web resources and services.